sensor_id;sensor_type;location;lat;lon;timestamp;P1;P2;P0
71097;PMS7003;58754;47.622;-2.986;2023-02-28T00:01:13;1.75;1.25;1.25
71097;PMS7003;58754;47.622;-2.986;2023-02-28T00:03:39;3.25;3.00;2.75
71097;PMS7003;58754;47.622;-2.986;2023-02-28T00:06:05;4.00;2.75;2.00
71097;PMS7003;58754;47.622;-2.986;2023-02-28T00:08:32;5.00;2.50;2.00
71097;PMS7003;58754;47.622;-2.986;2023-02-28T00:11:05;2.00;2.00;2.00
71097;PMS7003;58754;47.622;-2.986;2023-02-28T00:13:37;2.00;2.00;1.50
71097;PMS7003;58754;47.622;-2.986;2023-02-28T00:16:06;2.00;2.00;2.00
71097;PMS7003;58754;47.622;-2.986;2023-02-28T00:18:34;2.25;2.25;1.75
71097;PMS7003;58754;47.622;-2.986;2023-02-28T00:21:00;2.00;2.00;1.00
71097;PMS7003;58754;47.622;-2.986;2023-02-28T00:23:26;3.75;2.25;2.00
71097;PMS7003;58754;47.622;-2.986;2023-02-28T00:25:52;3.50;2.00;2.00
71097;PMS7003;58754;47.622;-2.986;2023-02-28T00:28:18;2.00;2.00;2.00
71097;PMS7003;58754;47.622;-2.986;2023-02-28T00:30:45;2.00;2.00;2.00
71097;PMS7003;58754;47.622;-2.986;2023-02-28T00:33:10;2.25;2.00;1.25
71097;PMS7003;58754;47.622;-2.986;2023-02-28T00:35:36;3.00;3.00;2.00
71097;PMS7003;58754;47.622;-2.986;2023-02-28T00:38:02;3.00;2.00;2.00
71097;PMS7003;58754;47.622;-2.986;2023-02-28T00:40:28;3.75;2.00;2.00
71097;PMS7003;58754;47.622;-2.986;2023-02-28T00:42:54;3.00;2.00;2.00
71097;PMS7003;58754;47.622;-2.986;2023-02-28T00:45:20;2.00;2.00;2.00
71097;PMS7003;58754;47.622;-2.986;2023-02-28T00:47:46;3.00;3.00;2.00
71097;PMS7003;58754;47.622;-2.986;2023-02-28T00:50:15;2.00;2.00;1.75
71097;PMS7003;58754;47.622;-2.986;2023-02-28T00:52:45;3.75;2.00;1.25
71097;PMS7003;58754;47.622;-2.986;2023-02-28T00:55:11;3.00;3.00;2.25
71097;PMS7003;58754;47.622;-2.986;2023-02-28T00:57:37;1.00;1.00;1.00
71097;PMS7003;58754;47.622;-2.986;2023-02-28T01:00:04;2.75;2.75;2.00
71097;PMS7003;58754;47.622;-2.986;2023-02-28T01:02:31;1.25;1.00;1.00
71097;PMS7003;58754;47.622;-2.986;2023-02-28T01:04:56;1.00;1.00;1.00
71097;PMS7003;58754;47.622;-2.986;2023-02-28T01:07:23;3.25;3.00;2.00
71097;PMS7003;58754;47.622;-2.986;2023-02-28T01:09:48;2.25;2.25;2.00
71097;PMS7003;58754;47.622;-2.986;2023-02-28T01:12:14;4.00;2.50;2.00
71097;PMS7003;58754;47.622;-2.986;2023-02-28T01:14:41;2.00;1.00;1.00
71097;PMS7003;58754;47.622;-2.986;2023-02-28T01:17:07;2.00;2.00;2.00
71097;PMS7003;58754;47.622;-2.986;2023-02-28T01:19:33;1.00;1.00;1.00
71097;PMS7003;58754;47.622;-2.986;2023-02-28T01:22:02;3.50;2.25;2.00
71097;PMS7003;58754;47.622;-2.986;2023-02-28T01:24:29;2.00;1.00;1.00
71097;PMS7003;58754;47.622;-2.986;2023-02-28T01:26:55;4.00;2.50;2.00
71097;PMS7003;58754;47.622;-2.986;2023-02-28T01:29:21;2.00;2.00;1.75
71097;PMS7003;58754;47.622;-2.986;2023-02-28T01:31:47;2.25;2.25;1.50
71097;PMS7003;58754;47.622;-2.986;2023-02-28T01:34:12;4.00;2.00;2.00
71097;PMS7003;58754;47.622;-2.986;2023-02-28T01:36:38;2.50;2.00;2.00
71097;PMS7003;58754;47.622;-2.986;2023-02-28T01:39:04;3.75;3.75;2.75
71097;PMS7003;58754;47.622;-2.986;2023-02-28T01:41:31;2.00;2.00;2.00
71097;PMS7003;58754;47.622;-2.986;2023-02-28T01:44:54;2.50;2.50;2.50
71097;PMS7003;58754;47.622;-2.986;2023-02-28T01:47:02;5.75;3.25;2.25
71097;PMS7003;58754;47.622;-2.986;2023-02-28T01:49:27;5.00;2.00;2.00
71097;PMS7003;58754;47.622;-2.986;2023-02-28T01:51:54;2.50;2.50;2.00
71097;PMS7003;58754;47.622;-2.986;2023-02-28T01:54:22;4.00;2.75;2.00
71097;PMS7003;58754;47.622;-2.986;2023-02-28T01:57:03;2.25;2.00;1.75
71097;PMS7003;58754;47.622;-2.986;2023-02-28T01:59:41;2.00;2.00;2.00
71097;PMS7003;58754;47.622;-2.986;2023-02-28T02:02:20;1.75;1.75;1.00
71097;PMS7003;58754;47.622;-2.986;2023-02-28T02:04:56;2.00;2.00;2.00
71097;PMS7003;58754;47.622;-2.986;2023-02-28T02:07:29;2.75;2.00;2.00
71097;PMS7003;58754;47.622;-2.986;2023-02-28T02:10:03;2.00;2.00;2.00
71097;PMS7003;58754;47.622;-2.986;2023-02-28T02:15:05;2.00;2.00;1.75
71097;PMS7003;58754;47.622;-2.986;2023-02-28T02:17:40;2.00;1.75;1.75
71097;PMS7003;58754;47.622;-2.986;2023-02-28T02:25:23;3.00;3.00;3.00
71097;PMS7003;58754;47.622;-2.986;2023-02-28T02:31:23;1.75;1.75;1.50
71097;PMS7003;58754;47.622;-2.986;2023-02-28T02:37:13;3.00;3.00;3.00
71097;PMS7003;58754;47.622;-2.986;2023-02-28T02:40:13;3.25;1.75;1.75
71097;PMS7003;58754;47.622;-2.986;2023-02-28T02:45:34;2.00;2.00;1.00
71097;PMS7003;58754;47.622;-2.986;2023-02-28T02:48:03;2.00;2.00;2.00
71097;PMS7003;58754;47.622;-2.986;2023-02-28T02:50:35;3.00;2.00;1.00
71097;PMS7003;58754;47.622;-2.986;2023-02-28T02:53:04;2.25;2.25;2.00
71097;PMS7003;58754;47.622;-2.986;2023-02-28T02:55:33;3.50;2.00;2.00
71097;PMS7003;58754;47.622;-2.986;2023-02-28T02:58:04;2.00;2.00;2.00
71097;PMS7003;58754;47.622;-2.986;2023-02-28T03:00:39;3.50;2.25;2.00
71097;PMS7003;58754;47.622;-2.986;2023-02-28T03:03:11;2.00;2.00;2.00
71097;PMS7003;58754;47.622;-2.986;2023-02-28T03:05:48;4.00;3.00;3.00
71097;PMS7003;58754;47.622;-2.986;2023-02-28T03:08:15;2.00;2.00;2.00
71097;PMS7003;58754;47.622;-2.986;2023-02-28T03:10:44;2.50;2.25;2.00
71097;PMS7003;58754;47.622;-2.986;2023-02-28T03:13:36;2.00;2.00;1.00
71097;PMS7003;58754;47.622;-2.986;2023-02-28T03:27:51;2.50;2.00;2.00
71097;PMS7003;58754;47.622;-2.986;2023-02-28T03:30:35;3.25;3.25;2.25
71097;PMS7003;58754;47.622;-2.986;2023-02-28T03:35:58;3.00;3.00;3.00
71097;PMS7003;58754;47.622;-2.986;2023-02-28T03:38:33;3.25;3.25;3.00
71097;PMS7003;58754;47.622;-2.986;2023-02-28T03:41:12;3.00;3.00;3.00
71097;PMS7003;58754;47.622;-2.986;2023-02-28T03:43:43;2.00;2.00;1.75
71097;PMS7003;58754;47.622;-2.986;2023-02-28T03:46:15;4.00;3.00;2.25
71097;PMS7003;58754;47.622;-2.986;2023-02-28T03:48:54;5.00;3.00;2.75
71097;PMS7003;58754;47.622;-2.986;2023-02-28T03:51:27;2.25;2.25;2.00
71097;PMS7003;58754;47.622;-2.986;2023-02-28T03:53:59;3.75;2.00;2.00
71097;PMS7003;58754;47.622;-2.986;2023-02-28T03:56:40;2.00;2.00;2.00
71097;PMS7003;58754;47.622;-2.986;2023-02-28T03:59:56;3.00;2.00;2.00
71097;PMS7003;58754;47.622;-2.986;2023-02-28T04:02:02;6.25;2.75;2.50
71097;PMS7003;58754;47.622;-2.986;2023-02-28T04:04:28;2.75;2.75;2.00
71097;PMS7003;58754;47.622;-2.986;2023-02-28T04:07:00;2.25;2.25;2.25
71097;PMS7003;58754;47.622;-2.986;2023-02-28T04:09:33;3.50;3.50;2.50
71097;PMS7003;58754;47.622;-2.986;2023-02-28T04:11:59;4.75;3.00;2.50
71097;PMS7003;58754;47.622;-2.986;2023-02-28T04:14:25;2.75;2.75;2.25
71097;PMS7003;58754;47.622;-2.986;2023-02-28T04:16:51;2.00;2.00;2.00
71097;PMS7003;58754;47.622;-2.986;2023-02-28T04:19:17;4.00;2.00;2.00
71097;PMS7003;58754;47.622;-2.986;2023-02-28T04:21:45;4.00;2.50;2.00
71097;PMS7003;58754;47.622;-2.986;2023-02-28T04:24:13;2.00;2.00;1.00
71097;PMS7003;58754;47.622;-2.986;2023-02-28T04:26:42;2.50;2.50;2.00
71097;PMS7003;58754;47.622;-2.986;2023-02-28T04:29:09;2.00;2.00;2.00
71097;PMS7003;58754;47.622;-2.986;2023-02-28T04:31:37;3.00;2.00;2.00
71097;PMS7003;58754;47.622;-2.986;2023-02-28T04:34:02;2.50;1.00;1.00
71097;PMS7003;58754;47.622;-2.986;2023-02-28T04:36:28;3.00;2.00;2.00
71097;PMS7003;58754;47.622;-2.986;2023-02-28T04:38:54;3.00;3.00;2.50
71097;PMS7003;58754;47.622;-2.986;2023-02-28T04:41:20;2.00;2.00;2.00
71097;PMS7003;58754;47.622;-2.986;2023-02-28T04:43:47;3.00;2.00;2.00
71097;PMS7003;58754;47.622;-2.986;2023-02-28T04:46:13;2.50;2.50;2.00
71097;PMS7003;58754;47.622;-2.986;2023-02-28T04:48:39;2.75;2.00;2.00
71097;PMS7003;58754;47.622;-2.986;2023-02-28T04:51:06;3.00;2.75;2.25
71097;PMS7003;58754;47.622;-2.986;2023-02-28T04:53:34;3.75;3.75;3.00
71097;PMS7003;58754;47.622;-2.986;2023-02-28T04:56:01;3.25;3.25;3.00
71097;PMS7003;58754;47.622;-2.986;2023-02-28T04:58:27;4.50;3.00;2.50
71097;PMS7003;58754;47.622;-2.986;2023-02-28T05:00:53;3.00;3.00;2.75
71097;PMS7003;58754;47.622;-2.986;2023-02-28T05:03:19;2.25;2.25;2.00
71097;PMS7003;58754;47.622;-2.986;2023-02-28T05:05:47;2.75;2.50;2.50
71097;PMS7003;58754;47.622;-2.986;2023-02-28T05:08:13;3.50;3.00;2.25
71097;PMS7003;58754;47.622;-2.986;2023-02-28T05:10:39;4.00;3.00;2.25
71097;PMS7003;58754;47.622;-2.986;2023-02-28T05:13:04;4.25;3.00;3.00
71097;PMS7003;58754;47.622;-2.986;2023-02-28T05:15:30;3.00;2.00;2.00
71097;PMS7003;58754;47.622;-2.986;2023-02-28T05:17:56;3.75;3.00;2.00
71097;PMS7003;58754;47.622;-2.986;2023-02-28T05:20:22;3.00;3.00;2.00
71097;PMS7003;58754;47.622;-2.986;2023-02-28T05:22:47;2.75;2.00;1.75
71097;PMS7003;58754;47.622;-2.986;2023-02-28T05:25:17;3.00;3.00;2.00
71097;PMS7003;58754;47.622;-2.986;2023-02-28T05:27:45;3.00;2.75;2.00
71097;PMS7003;58754;47.622;-2.986;2023-02-28T05:30:11;2.00;2.00;1.00
71097;PMS7003;58754;47.622;-2.986;2023-02-28T05:32:37;2.00;2.00;2.00
71097;PMS7003;58754;47.622;-2.986;2023-02-28T05:35:07;2.00;2.00;2.00
71097;PMS7003;58754;47.622;-2.986;2023-02-28T05:37:34;2.75;2.75;2.00
71097;PMS7003;58754;47.622;-2.986;2023-02-28T05:40:01;3.00;2.25;2.00
71097;PMS7003;58754;47.622;-2.986;2023-02-28T05:42:27;2.00;2.00;2.00
71097;PMS7003;58754;47.622;-2.986;2023-02-28T05:44:53;2.00;2.00;2.00
71097;PMS7003;58754;47.622;-2.986;2023-02-28T05:47:18;5.75;3.75;3.00
71097;PMS7003;58754;47.622;-2.986;2023-02-28T05:49:44;3.00;3.00;3.00
71097;PMS7003;58754;47.622;-2.986;2023-02-28T05:52:10;3.50;3.50;2.50
71097;PMS7003;58754;47.622;-2.986;2023-02-28T05:54:36;3.00;1.75;1.75
71097;PMS7003;58754;47.622;-2.986;2023-02-28T05:57:01;2.00;2.00;2.00
71097;PMS7003;58754;47.622;-2.986;2023-02-28T05:59:27;2.25;2.25;2.00
71097;PMS7003;58754;47.622;-2.986;2023-02-28T06:01:53;3.25;2.25;2.00
71097;PMS7003;58754;47.622;-2.986;2023-02-28T06:04:19;3.00;2.00;2.00
71097;PMS7003;58754;47.622;-2.986;2023-02-28T06:06:46;5.00;3.00;3.00
71097;PMS7003;58754;47.622;-2.986;2023-02-28T06:09:13;2.25;2.25;2.00
71097;PMS7003;58754;47.622;-2.986;2023-02-28T06:11:40;3.00;2.00;2.00
71097;PMS7003;58754;47.622;-2.986;2023-02-28T06:14:07;5.75;3.00;2.00
71097;PMS7003;58754;47.622;-2.986;2023-02-28T06:16:41;6.00;3.00;2.50
71097;PMS7003;58754;47.622;-2.986;2023-02-28T06:19:06;2.50;2.00;2.00
71097;PMS7003;58754;47.622;-2.986;2023-02-28T06:21:33;4.00;2.75;2.00
71097;PMS7003;58754;47.622;-2.986;2023-02-28T06:23:59;3.00;3.00;3.00
71097;PMS7003;58754;47.622;-2.986;2023-02-28T06:26:25;7.00;3.00;2.00
71097;PMS7003;58754;47.622;-2.986;2023-02-28T06:28:51;4.00;2.50;2.00
71097;PMS7003;58754;47.622;-2.986;2023-02-28T06:31:17;4.00;3.00;2.00
71097;PMS7003;58754;47.622;-2.986;2023-02-28T06:33:44;2.50;2.25;1.50
71097;PMS7003;58754;47.622;-2.986;2023-02-28T06:36:11;3.75;3.75;3.00
71097;PMS7003;58754;47.622;-2.986;2023-02-28T06:38:38;3.25;3.25;3.00
71097;PMS7003;58754;47.622;-2.986;2023-02-28T06:41:05;4.00;3.00;2.75
71097;PMS7003;58754;47.622;-2.986;2023-02-28T06:43:37;4.50;3.00;3.00
71097;PMS7003;58754;47.622;-2.986;2023-02-28T06:46:06;3.50;3.00;3.00
71097;PMS7003;58754;47.622;-2.986;2023-02-28T06:48:33;6.25;2.50;2.00
71097;PMS7003;58754;47.622;-2.986;2023-02-28T06:51:06;2.75;2.00;2.00
71097;PMS7003;58754;47.622;-2.986;2023-02-28T06:53:36;3.00;3.00;3.00
71097;PMS7003;58754;47.622;-2.986;2023-02-28T06:56:05;5.00;3.00;3.00
71097;PMS7003;58754;47.622;-2.986;2023-02-28T06:58:33;2.75;2.75;2.75
71097;PMS7003;58754;47.622;-2.986;2023-02-28T07:00:59;3.00;3.00;2.50
71097;PMS7003;58754;47.622;-2.986;2023-02-28T07:03:25;4.75;3.25;3.00
71097;PMS7003;58754;47.622;-2.986;2023-02-28T07:05:51;5.00;4.00;3.00
71097;PMS7003;58754;47.622;-2.986;2023-02-28T07:08:16;3.75;3.75;3.25
71097;PMS7003;58754;47.622;-2.986;2023-02-28T07:10:42;2.25;2.25;2.00
71097;PMS7003;58754;47.622;-2.986;2023-02-28T07:13:08;3.50;3.50;3.00
71097;PMS7003;58754;47.622;-2.986;2023-02-28T07:15:35;4.75;4.75;3.00
71097;PMS7003;58754;47.622;-2.986;2023-02-28T07:18:01;4.00;4.00;3.00
71097;PMS7003;58754;47.622;-2.986;2023-02-28T07:20:28;4.00;4.00;3.50
71097;PMS7003;58754;47.622;-2.986;2023-02-28T07:22:54;4.00;4.00;3.00
71097;PMS7003;58754;47.622;-2.986;2023-02-28T07:25:27;2.00;2.00;2.00
71097;PMS7003;58754;47.622;-2.986;2023-02-28T07:27:55;4.00;2.75;2.00
71097;PMS7003;58754;47.622;-2.986;2023-02-28T07:30:21;4.00;4.00;4.00
71097;PMS7003;58754;47.622;-2.986;2023-02-28T07:32:47;3.75;3.75;3.25
71097;PMS7003;58754;47.622;-2.986;2023-02-28T07:35:13;4.00;4.00;3.00
71097;PMS7003;58754;47.622;-2.986;2023-02-28T07:37:41;5.00;3.50;3.00
71097;PMS7003;58754;47.622;-2.986;2023-02-28T07:40:08;4.00;2.00;2.00
71097;PMS7003;58754;47.622;-2.986;2023-02-28T07:42:38;4.50;3.50;2.75
71097;PMS7003;58754;47.622;-2.986;2023-02-28T07:45:05;5.75;3.75;3.00
71097;PMS7003;58754;47.622;-2.986;2023-02-28T07:47:31;3.50;3.25;3.00
71097;PMS7003;58754;47.622;-2.986;2023-02-28T07:49:57;4.00;4.00;4.00
71097;PMS7003;58754;47.622;-2.986;2023-02-28T07:52:23;3.75;3.00;3.00
71097;PMS7003;58754;47.622;-2.986;2023-02-28T07:54:49;4.75;3.25;2.75
71097;PMS7003;58754;47.622;-2.986;2023-02-28T07:57:15;5.50;4.00;3.00
71097;PMS7003;58754;47.622;-2.986;2023-02-28T07:59:42;4.50;4.50;3.50
71097;PMS7003;58754;47.622;-2.986;2023-02-28T08:02:14;4.75;3.25;3.00
71097;PMS7003;58754;47.622;-2.986;2023-02-28T08:04:42;4.00;4.00;3.00
71097;PMS7003;58754;47.622;-2.986;2023-02-28T08:07:08;4.00;4.00;3.00
71097;PMS7003;58754;47.622;-2.986;2023-02-28T08:09:34;6.00;4.00;4.00
71097;PMS7003;58754;47.622;-2.986;2023-02-28T08:12:00;4.25;4.00;4.00
71097;PMS7003;58754;47.622;-2.986;2023-02-28T08:14:26;5.00;4.00;3.00
71097;PMS7003;58754;47.622;-2.986;2023-02-28T08:16:52;5.00;5.00;4.00
71097;PMS7003;58754;47.622;-2.986;2023-02-28T08:19:17;6.25;5.00;4.25
71097;PMS7003;58754;47.622;-2.986;2023-02-28T08:21:43;7.00;5.75;5.00
71097;PMS7003;58754;47.622;-2.986;2023-02-28T08:24:09;6.75;6.00;5.00
71097;PMS7003;58754;47.622;-2.986;2023-02-28T08:26:34;6.00;5.50;4.00
71097;PMS7003;58754;47.622;-2.986;2023-02-28T08:29:00;6.00;5.00;4.00
71097;PMS7003;58754;47.622;-2.986;2023-02-28T08:31:26;5.00;5.00;4.00
71097;PMS7003;58754;47.622;-2.986;2023-02-28T08:33:52;5.25;4.00;3.25
71097;PMS7003;58754;47.622;-2.986;2023-02-28T08:36:20;7.50;5.00;4.00
71097;PMS7003;58754;47.622;-2.986;2023-02-28T08:38:46;9.00;4.00;3.75
71097;PMS7003;58754;47.622;-2.986;2023-02-28T08:41:12;5.75;5.50;4.25
71097;PMS7003;58754;47.622;-2.986;2023-02-28T08:43:38;3.75;3.50;3.00
71097;PMS7003;58754;47.622;-2.986;2023-02-28T08:46:05;9.00;4.75;4.00
71097;PMS7003;58754;47.622;-2.986;2023-02-28T08:48:33;6.00;5.00;4.50
71097;PMS7003;58754;47.622;-2.986;2023-02-28T08:51:07;7.00;7.00;4.75
71097;PMS7003;58754;47.622;-2.986;2023-02-28T08:53:35;5.00;5.00;4.00
71097;PMS7003;58754;47.622;-2.986;2023-02-28T08:56:02;5.75;4.00;3.50
71097;PMS7003;58754;47.622;-2.986;2023-02-28T08:58:39;10.25;6.00;5.00
71097;PMS7003;58754;47.622;-2.986;2023-02-28T09:01:09;6.00;6.00;4.75
71097;PMS7003;58754;47.622;-2.986;2023-02-28T09:03:37;8.25;6.50;5.50
71097;PMS7003;58754;47.622;-2.986;2023-02-28T09:06:03;5.50;5.50;5.00
71097;PMS7003;58754;47.622;-2.986;2023-02-28T09:08:30;7.00;5.75;4.75
71097;PMS7003;58754;47.622;-2.986;2023-02-28T09:10:57;5.75;4.25;4.00
71097;PMS7003;58754;47.622;-2.986;2023-02-28T09:13:24;6.00;5.00;4.00
71097;PMS7003;58754;47.622;-2.986;2023-02-28T09:15:51;8.50;6.25;5.00
71097;PMS7003;58754;47.622;-2.986;2023-02-28T09:18:17;5.50;5.25;4.00
71097;PMS7003;58754;47.622;-2.986;2023-02-28T09:20:43;8.50;7.00;4.50
71097;PMS7003;58754;47.622;-2.986;2023-02-28T09:23:09;6.00;6.00;5.50
71097;PMS7003;58754;47.622;-2.986;2023-02-28T09:25:36;7.00;7.00;5.25
71097;PMS7003;58754;47.622;-2.986;2023-02-28T09:28:02;8.00;6.50;5.00
71097;PMS7003;58754;47.622;-2.986;2023-02-28T09:30:29;8.25;7.50;5.50
71097;PMS7003;58754;47.622;-2.986;2023-02-28T09:32:55;5.00;5.00;5.00
71097;PMS7003;58754;47.622;-2.986;2023-02-28T09:35:21;7.00;6.00;4.25
71097;PMS7003;58754;47.622;-2.986;2023-02-28T09:37:51;7.00;6.00;4.50
71097;PMS7003;58754;47.622;-2.986;2023-02-28T09:40:18;6.75;5.25;5.00
71097;PMS7003;58754;47.622;-2.986;2023-02-28T09:42:47;7.50;7.50;5.25
71097;PMS7003;58754;47.622;-2.986;2023-02-28T09:48:11;7.25;7.25;6.00
71097;PMS7003;58754;47.622;-2.986;2023-02-28T09:50:41;6.75;6.75;6.00
71097;PMS7003;58754;47.622;-2.986;2023-02-28T09:53:15;6.75;6.00;5.00
71097;PMS7003;58754;47.622;-2.986;2023-02-28T09:55:48;7.00;7.00;7.00
71097;PMS7003;58754;47.622;-2.986;2023-02-28T09:59:01;7.75;6.75;5.00
71097;PMS7003;58754;47.622;-2.986;2023-02-28T10:07:14;7.00;7.00;5.50
71097;PMS7003;58754;47.622;-2.986;2023-02-28T10:10:04;6.75;6.75;5.00
71097;PMS7003;58754;47.622;-2.986;2023-02-28T10:12:41;10.50;8.00;6.00
71097;PMS7003;58754;47.622;-2.986;2023-02-28T10:15:14;11.75;8.00;6.25
71097;PMS7003;58754;47.622;-2.986;2023-02-28T10:17:43;9.50;8.00;6.50
71097;PMS7003;58754;47.622;-2.986;2023-02-28T10:20:14;7.25;7.25;6.00
71097;PMS7003;58754;47.622;-2.986;2023-02-28T10:22:59;6.50;6.00;5.00
71097;PMS7003;58754;47.622;-2.986;2023-02-28T10:25:55;11.75;8.75;7.00
71097;PMS7003;58754;47.622;-2.986;2023-02-28T10:28:24;9.00;8.00;6.25
71097;PMS7003;58754;47.622;-2.986;2023-02-28T10:30:52;10.00;8.00;6.75
71097;PMS7003;58754;47.622;-2.986;2023-02-28T10:33:21;8.75;7.25;6.00
71097;PMS7003;58754;47.622;-2.986;2023-02-28T10:35:47;8.00;8.00;6.00
71097;PMS7003;58754;47.622;-2.986;2023-02-28T10:38:15;8.25;7.75;6.00
71097;PMS7003;58754;47.622;-2.986;2023-02-28T10:40:44;8.00;8.00;7.00
71097;PMS7003;58754;47.622;-2.986;2023-02-28T10:45:39;8.75;8.50;6.25
71097;PMS7003;58754;47.622;-2.986;2023-02-28T10:56:03;8.25;8.25;6.75
71097;PMS7003;58754;47.622;-2.986;2023-02-28T11:01:24;8.00;8.00;6.00
71097;PMS7003;58754;47.622;-2.986;2023-02-28T11:04:16;10.25;8.00;6.75
71097;PMS7003;58754;47.622;-2.986;2023-02-28T11:06:44;11.50;7.50;5.75
71097;PMS7003;58754;47.622;-2.986;2023-02-28T11:09:45;7.25;7.25;5.25
71097;PMS7003;58754;47.622;-2.986;2023-02-28T11:12:04;9.25;7.50;6.75
71097;PMS7003;58754;47.622;-2.986;2023-02-28T11:14:50;6.25;5.25;4.25
71097;PMS7003;58754;47.622;-2.986;2023-02-28T11:17:21;8.00;8.00;7.00
71097;PMS7003;58754;47.622;-2.986;2023-02-28T11:19:51;7.50;7.00;6.00
71097;PMS7003;58754;47.622;-2.986;2023-02-28T11:22:24;9.50;7.75;6.00
71097;PMS7003;58754;47.622;-2.986;2023-02-28T11:24:57;10.00;9.00;8.00
71097;PMS7003;58754;47.622;-2.986;2023-02-28T11:29:55;11.50;10.00;7.75
71097;PMS7003;58754;47.622;-2.986;2023-02-28T11:32:23;8.00;6.50;5.75
71097;PMS7003;58754;47.622;-2.986;2023-02-28T11:35:00;10.00;8.75;7.50
71097;PMS7003;58754;47.622;-2.986;2023-02-28T11:37:29;11.00;7.75;6.25
71097;PMS7003;58754;47.622;-2.986;2023-02-28T11:39:56;9.25;8.00;6.50
71097;PMS7003;58754;47.622;-2.986;2023-02-28T11:42:32;8.00;8.00;7.00
71097;PMS7003;58754;47.622;-2.986;2023-02-28T11:48:27;6.75;6.50;5.00
71097;PMS7003;58754;47.622;-2.986;2023-02-28T11:56:53;9.50;9.00;6.00
71097;PMS7003;58754;47.622;-2.986;2023-02-28T11:59:40;9.75;5.75;4.75
71097;PMS7003;58754;47.622;-2.986;2023-02-28T12:03:14;6.75;6.75;5.00
71097;PMS7003;58754;47.622;-2.986;2023-02-28T12:05:26;8.00;6.75;5.00
71097;PMS7003;58754;47.622;-2.986;2023-02-28T12:13:55;9.00;7.25;6.50
71097;PMS7003;58754;47.622;-2.986;2023-02-28T12:24:00;6.25;5.00;5.00
71097;PMS7003;58754;47.622;-2.986;2023-02-28T12:26:40;6.75;5.00;4.50
71097;PMS7003;58754;47.622;-2.986;2023-02-28T12:29:19;6.50;6.50;5.00
71097;PMS7003;58754;47.622;-2.986;2023-02-28T12:32:21;10.75;8.00;6.00
71097;PMS7003;58754;47.622;-2.986;2023-02-28T12:34:52;9.25;8.00;6.00
71097;PMS7003;58754;47.622;-2.986;2023-02-28T12:37:54;7.00;5.50;5.00
71097;PMS7003;58754;47.622;-2.986;2023-02-28T12:43:47;5.75;5.75;5.50
71097;PMS7003;58754;47.622;-2.986;2023-02-28T12:46:25;5.00;4.75;3.50
71097;PMS7003;58754;47.622;-2.986;2023-02-28T12:52:08;10.00;7.00;5.50
71097;PMS7003;58754;47.622;-2.986;2023-02-28T12:54:44;7.00;6.25;5.25
71097;PMS7003;58754;47.622;-2.986;2023-02-28T13:00:08;6.25;6.25;5.00
71097;PMS7003;58754;47.622;-2.986;2023-02-28T13:08:42;6.50;5.00;4.00
71097;PMS7003;58754;47.622;-2.986;2023-02-28T13:11:37;7.00;5.25;4.75
71097;PMS7003;58754;47.622;-2.986;2023-02-28T13:14:06;4.00;4.00;4.00
71097;PMS7003;58754;47.622;-2.986;2023-02-28T13:16:49;5.00;5.00;4.25
71097;PMS7003;58754;47.622;-2.986;2023-02-28T13:19:20;7.00;7.00;5.00
71097;PMS7003;58754;47.622;-2.986;2023-02-28T13:21:49;5.00;5.00;3.00
71097;PMS7003;58754;47.622;-2.986;2023-02-28T13:29:34;5.75;4.00;3.00
71097;PMS7003;58754;47.622;-2.986;2023-02-28T13:34:31;5.50;5.25;4.25
71097;PMS7003;58754;47.622;-2.986;2023-02-28T13:39:49;6.50;5.00;4.75
71097;PMS7003;58754;47.622;-2.986;2023-02-28T13:47:40;6.00;4.25;3.50
71097;PMS7003;58754;47.622;-2.986;2023-02-28T13:55:44;3.75;2.00;1.00
71097;PMS7003;58754;47.622;-2.986;2023-02-28T14:04:17;3.25;3.25;3.00
71097;PMS7003;58754;47.622;-2.986;2023-02-28T14:07:01;6.00;4.25;3.50
71097;PMS7003;58754;47.622;-2.986;2023-02-28T14:09:29;5.00;5.00;4.75
71097;PMS7003;58754;47.622;-2.986;2023-02-28T14:15:04;6.00;4.00;3.00
71097;PMS7003;58754;47.622;-2.986;2023-02-28T14:17:51;4.00;3.50;3.50
71097;PMS7003;58754;47.622;-2.986;2023-02-28T14:20:18;6.25;4.25;4.00
71097;PMS7003;58754;47.622;-2.986;2023-02-28T14:23:02;3.50;3.50;3.00
71097;PMS7003;58754;47.622;-2.986;2023-02-28T14:25:37;5.00;4.25;3.00
71097;PMS7003;58754;47.622;-2.986;2023-02-28T14:28:50;3.25;2.50;2.25
71097;PMS7003;58754;47.622;-2.986;2023-02-28T14:31:34;6.50;3.25;3.00
71097;PMS7003;58754;47.622;-2.986;2023-02-28T14:37:15;4.00;3.75;3.00
71097;PMS7003;58754;47.622;-2.986;2023-02-28T14:39:51;3.00;3.00;2.00
71097;PMS7003;58754;47.622;-2.986;2023-02-28T14:45:01;4.00;4.00;3.25
71097;PMS7003;58754;47.622;-2.986;2023-02-28T14:47:28;6.75;4.25;3.00
71097;PMS7003;58754;47.622;-2.986;2023-02-28T14:49:58;4.50;4.50;3.00
71097;PMS7003;58754;47.622;-2.986;2023-02-28T14:52:27;4.25;3.00;2.50
71097;PMS7003;58754;47.622;-2.986;2023-02-28T14:55:04;4.25;4.00;3.00
71097;PMS7003;58754;47.622;-2.986;2023-02-28T14:57:41;2.50;2.50;2.00
71097;PMS7003;58754;47.622;-2.986;2023-02-28T15:00:17;5.25;4.00;3.00
71097;PMS7003;58754;47.622;-2.986;2023-02-28T15:02:46;5.00;4.00;3.00
71097;PMS7003;58754;47.622;-2.986;2023-02-28T15:07:43;3.00;3.00;2.50
71097;PMS7003;58754;47.622;-2.986;2023-02-28T15:10:23;5.00;3.25;3.00
71097;PMS7003;58754;47.622;-2.986;2023-02-28T15:15:27;2.00;2.00;2.00
71097;PMS7003;58754;47.622;-2.986;2023-02-28T15:20:58;3.00;3.00;2.75
71097;PMS7003;58754;47.622;-2.986;2023-02-28T15:23:29;3.50;3.50;2.75
71097;PMS7003;58754;47.622;-2.986;2023-02-28T15:25:55;3.00;3.00;2.25
71097;PMS7003;58754;47.622;-2.986;2023-02-28T15:28:21;4.50;3.50;3.00
71097;PMS7003;58754;47.622;-2.986;2023-02-28T15:30:53;3.75;3.00;3.00
71097;PMS7003;58754;47.622;-2.986;2023-02-28T15:33:33;4.50;4.50;3.75
71097;PMS7003;58754;47.622;-2.986;2023-02-28T15:36:10;3.00;3.00;3.00
71097;PMS7003;58754;47.622;-2.986;2023-02-28T15:38:39;4.00;3.00;3.00
71097;PMS7003;58754;47.622;-2.986;2023-02-28T15:41:20;7.25;5.25;4.00
71097;PMS7003;58754;47.622;-2.986;2023-02-28T15:44:13;6.00;4.75;3.75
71097;PMS7003;58754;47.622;-2.986;2023-02-28T15:49:29;4.00;4.00;3.00
71097;PMS7003;58754;47.622;-2.986;2023-02-28T15:52:09;4.00;4.00;3.25
71097;PMS7003;58754;47.622;-2.986;2023-02-28T15:54:40;4.50;4.50;4.00
71097;PMS7003;58754;47.622;-2.986;2023-02-28T15:57:10;3.75;3.75;3.00
71097;PMS7003;58754;47.622;-2.986;2023-02-28T15:59:42;4.00;4.00;3.50
71097;PMS7003;58754;47.622;-2.986;2023-02-28T16:02:20;4.00;3.00;3.00
71097;PMS7003;58754;47.622;-2.986;2023-02-28T16:07:53;8.25;5.00;4.00
71097;PMS7003;58754;47.622;-2.986;2023-02-28T16:10:20;5.25;5.25;4.25
71097;PMS7003;58754;47.622;-2.986;2023-02-28T16:12:50;4.00;4.00;3.00
71097;PMS7003;58754;47.622;-2.986;2023-02-28T16:15:22;5.50;4.00;4.00
71097;PMS7003;58754;47.622;-2.986;2023-02-28T16:17:53;4.75;4.00;3.00
71097;PMS7003;58754;47.622;-2.986;2023-02-28T16:20:29;4.00;4.00;3.00
71097;PMS7003;58754;47.622;-2.986;2023-02-28T16:22:55;4.50;3.50;3.00
71097;PMS7003;58754;47.622;-2.986;2023-02-28T16:25:26;5.00;5.00;3.00
71097;PMS7003;58754;47.622;-2.986;2023-02-28T16:28:11;5.50;4.00;4.00
71097;PMS7003;58754;47.622;-2.986;2023-02-28T16:30:43;5.25;4.00;3.50
71097;PMS7003;58754;47.622;-2.986;2023-02-28T16:33:08;6.00;6.00;4.75
71097;PMS7003;58754;47.622;-2.986;2023-02-28T16:35:34;7.00;5.00;5.00
71097;PMS7003;58754;47.622;-2.986;2023-02-28T16:38:00;6.00;6.00;4.00
71097;PMS7003;58754;47.622;-2.986;2023-02-28T16:40:26;4.50;3.50;3.50
71097;PMS7003;58754;47.622;-2.986;2023-02-28T16:42:57;6.00;5.50;4.25
71097;PMS7003;58754;47.622;-2.986;2023-02-28T16:45:25;6.50;5.00;4.25
71097;PMS7003;58754;47.622;-2.986;2023-02-28T16:47:52;5.75;4.00;4.00
71097;PMS7003;58754;47.622;-2.986;2023-02-28T16:50:22;5.00;5.00;4.00
71097;PMS7003;58754;47.622;-2.986;2023-02-28T16:52:50;6.50;5.00;4.75